Latest Weather Observations for Hamilton Island

IDQ60801

Issued at 1:52 pm EST Sunday 5 April 2020 (issued every 10 minutes, with the page automatically refreshed every 10 minutes)

About weather observations | Map of weather stations | Latest weather observations for QLD | Other Formats
Station Details ID: 033106 Name: HAMILTON ISLAND AIRPORT Lat: -20.37 Lon: 148.95 Height: 58.66 m
Data from the previous 72 hours. | See also: Recent months at Hamilton Island
Date/Time
EST
Temp
°C
App
Temp
°C
Dew
Point
°C
Rel
Hum
%
Delta-T
°C
Wind Press
QNH
hPa
Press
MSL
hPa
Rain since
9am
mm
Dir  Spd
km/h
Gust
km/h
Spd
kts
Gust
kts
05/01:30pm 28.5 30.6 22.5 70 4.1 ESE 15 17 8 9 1011.1 1010.8 0.0
05/01:00pm 28.5 31.8 23.9 76 3.2 SE 13 15 7 8 1011.4 1011.1 0.0
05/12:30pm 28.5 31.0 23.2 73 3.6 SE 15 17 8 9 1011.9 1011.6 0.0
05/12:00pm 28.4 31.1 22.9 72 3.8 ESE 13 17 7 9 1012.3 1012.0 0.0
05/11:30am 27.9 30.1 21.9 70 4.0 SE 13 15 7 8 1012.6 1012.3 0.0
05/11:00am 28.2 30.5 22.0 69 4.2 ESE 13 15 7 8 1012.8 1012.5 0.0
05/10:30am 28.0 31.0 22.7 73 3.6 ESE 11 13 6 7 1012.9 1012.6 0.0
05/10:00am 28.1 30.9 23.0 74 3.5 SSE 13 15 7 8 1013.1 1012.8 0.0
05/09:30am 27.1 30.2 22.1 74 3.4 SW 9 13 5 7 1013.1 1012.8 0.0
05/09:00am 27.1 30.6 22.1 74 3.4 SW 7 11 4 6 1013.0 1012.7 0.0
05/08:30am 26.3 28.8 22.4 79 2.6 SW 13 15 7 8 1012.9 1012.6 0.0
05/08:00am 25.8 29.4 22.3 81 2.4 SW 7 11 4 6 1012.6 1012.3 0.0
05/07:30am 25.6 29.5 22.9 85 1.8 WSW 7 9 4 5 1012.4 1012.1 0.0
05/07:00am 25.3 29.7 22.8 86 1.7 WNW 4 6 2 3 1011.9 1011.6 0.0
05/06:30am 24.6 28.5 23.0 91 1.1 W 7 9 4 5 1011.5 1011.2 0.0
05/06:00am 24.5 28.2 22.6 89 1.3 WNW 7 9 4 5 1011.2 1010.9 0.0
05/05:30am 24.4 28.1 22.5 89 1.3 NNW 7 9 4 5 1010.7 1010.4 0.0
05/05:00am 24.3 27.2 22.4 89 1.3 NNW 11 11 6 6 1010.5 1010.2 0.0
05/04:30am 24.4 28.3 22.5 89 1.3 NW 6 7 3 4 1010.3 1010.0 0.0
05/04:00am 24.6 28.2 22.1 86 1.7 WNW 6 9 3 5 1010.3 1010.0 0.0
05/03:30am 25.1 28.3 21.6 81 2.3 N 7 9 4 5 1010.1 1009.8 0.0
05/03:00am 24.9 28.4 21.8 83 2.1 NNW 6 7 3 4 1010.3 1010.0 0.0
05/02:30am 24.6 27.6 21.9 85 1.8 NNW 9 9 5 5 1010.4 1010.1 0.0
05/02:00am 24.7 28.5 22.4 87 1.5 NW 6 9 3 5 1010.6 1010.3 0.0
05/01:30am 24.7 28.1 22.0 85 1.8 NW 7 9 4 5 1010.8 1010.5 0.0
05/01:00am 24.8 28.1 21.9 84 1.9 NW 7 7 4 4 1011.0 1010.7 0.0
05/12:30am 24.7 28.1 22.0 85 1.8 NNW 7 9 4 5 1011.3 1011.0 0.0
05/12:00am 24.8 28.1 21.9 84 1.9 NW 7 9 4 5 1011.6 1011.3 0.0
 
Date/Time
EST
Temp
°C
App
Temp
°C
Dew
Point
°C
Rel
Hum
%
Delta-T
°C
Wind Press
QNH
hPa
Press
MSL
hPa
Rain since
9am
mm
Dir  Spd
km/h
Gust
km/h
Spd
kts
Gust
kts
04/11:30pm 25.1 29.0 22.6 86 1.7 NW 6 7 3 4 1011.7 1011.4 0.0
04/11:00pm 25.3 28.9 22.0 82 2.2 WNW 6 6 3 3 1011.7 1011.4 0.0
04/10:30pm 25.3 29.0 22.2 83 2.1 NW 6 7 3 4 1011.7 1011.4 0.0
04/10:00pm 25.4 28.5 21.5 79 2.6 NW 7 9 4 5 1011.6 1011.3 0.0
04/09:30pm 25.5 28.8 21.4 78 2.7 NW 6 7 3 4 1011.5 1011.2 0.0
04/09:00pm 25.6 28.9 21.5 78 2.7 NNE 6 7 3 4 1011.4 1011.1 0.0
04/08:30pm 25.4 28.6 21.7 80 2.5 NNW 7 7 4 4 1011.1 1010.8 0.0
04/08:00pm 25.6 28.7 21.5 78 2.7 NNW 7 9 4 5 1010.8 1010.5 0.0
04/07:30pm 26.0 29.0 21.9 78 2.7 NNE 9 13 5 7 1010.4 1010.1 0.0
04/07:00pm 26.1 28.6 21.7 77 2.9 NNE 11 13 6 7 1010.0 1009.7 0.0
04/06:30pm 26.2 28.4 21.8 77 2.9 NE 13 17 7 9 1009.4 1009.1 0.0
04/06:00pm 26.5 28.5 21.5 74 3.3 NE 13 17 7 9 1009.1 1008.8 0.0
04/05:30pm 27.1 28.5 21.8 73 3.6 NE 17 20 9 11 1008.7 1008.4 0.0
04/05:00pm 27.2 29.0 21.9 73 3.6 NE 15 20 8 11 1008.5 1008.2 0.0
04/04:30pm 27.2 27.9 22.2 74 3.4 ENE 22 28 12 15 1008.1 1007.8 0.0
04/04:00pm 27.5 28.8 22.7 75 3.3 E 20 24 11 13 1008.1 1007.8 0.0
04/03:30pm 27.3 28.1 21.8 72 3.7 E 20 26 11 14 1007.9 1007.6 0.0
04/03:00pm 27.6 28.3 21.6 70 4.0 E 20 22 11 12 1007.9 1007.6 0.0
04/02:30pm 27.6 29.2 22.1 72 3.7 ESE 17 20 9 11 1008.3 1008.0 0.0
04/02:00pm 27.7 30.2 22.4 73 3.6 ESE 13 17 7 9 1008.6 1008.3 0.0
04/01:30pm 27.9 31.1 23.1 75 3.3 ESE 11 13 6 7 1009.0 1008.7 0.0
04/01:00pm 27.6 30.3 22.1 72 3.7 SE 11 13 6 7 1009.5 1009.2 0.0
04/12:30pm 27.8 30.6 21.6 69 4.2 S 9 11 5 6 1009.9 1009.6 0.0
04/12:00pm 27.2 29.6 21.5 71 3.8 SE 11 13 6 7 1010.0 1009.7 0.0
04/11:30am 27.5 30.6 22.2 73 3.6 SE 9 15 5 8 1010.4 1010.1 0.0
04/11:00am 27.6 30.2 21.9 71 3.8 SE 11 13 6 7 1011.0 1010.7 0.0
04/10:30am 27.9 31.1 22.4 72 3.7 SSE 9 13 5 7 1011.3 1011.0 0.0
04/10:00am 27.4 30.7 22.6 75 3.3 SSW 9 13 5 7 1011.6 1011.3 0.0
04/09:30am 26.4 28.9 21.8 76 3.1 SW 11 13 6 7 1011.6 1011.3 0.0
04/09:00am 26.1 29.2 22.2 79 2.6 SSW 9 13 5 7 1011.8 1011.5 1.4
04/08:30am 26.3 29.8 22.2 78 2.8 WSW 7 9 4 5 1011.6 1011.3 1.4
04/08:00am 25.6 29.3 22.3 82 2.2 SW 6 7 3 4 1011.3 1011.0 1.4
04/07:30am 24.8 28.3 21.9 84 1.9 WSW 6 9 3 5 1011.0 1010.7 1.4
04/07:00am 24.2 26.7 21.7 86 1.7 WSW 11 15 6 8 1010.8 1010.5 1.4
04/06:30am 24.0 27.0 21.9 88 1.4 WSW 9 13 5 7 1010.7 1010.4 1.4
04/06:00am 23.9 27.4 22.2 90 1.1 WSW 7 13 4 7 1010.4 1010.1 1.4
04/05:30am 23.9 28.6 22.0 89 1.3 CALM 0 6 0 3 1009.9 1009.6 1.4
04/05:00am 23.9 27.3 22.0 89 1.3 NW 7 7 4 4 1009.7 1009.4 1.4
04/04:30am 24.0 28.5 22.3 90 1.1 NW 2 7 1 4 1009.6 1009.3 1.4
04/04:00am 24.1 28.7 21.8 87 1.5 CALM 0 0 0 0 1009.5 1009.2 1.4
04/03:30am 24.0 27.5 21.9 88 1.4 NNW 6 7 3 4 1009.5 1009.2 1.4
04/03:00am 24.1 28.0 21.8 87 1.5 NW 4 6 2 3 1009.9 1009.6 1.4
04/02:30am 24.0 27.2 21.7 87 1.5 NNW 7 7 4 4 1010.0 1009.7 1.4
04/02:00am 24.4 28.7 21.1 82 2.2 CALM 0 6 0 3 1010.1 1009.8 1.4
04/01:30am 24.3 27.7 21.6 85 1.8 NNW 6 7 3 4 1010.3 1010.0 1.4
04/01:00am 24.9 26.7 20.4 76 2.9 NE 11 15 6 8 1010.5 1010.2 1.4
04/12:30am 25.1 26.5 20.4 75 3.1 ENE 13 19 7 10 1010.6 1010.3 1.4
04/12:00am 25.3 26.7 21.0 77 2.8 E 15 19 8 10 1010.7 1010.4 1.4
 
Date/Time
EST
Temp
°C
App
Temp
°C
Dew
Point
°C
Rel
Hum
%
Delta-T
°C
Wind Press
QNH
hPa
Press
MSL
hPa
Rain since
9am
mm
Dir  Spd
km/h
Gust
km/h
Spd
kts
Gust
kts
03/11:30pm 25.5 25.8 20.5 74 3.3 E 19 22 10 12 1010.7 1010.4 1.4
03/11:00pm 25.4 26.7 20.9 76 3.0 E 15 19 8 10 1010.8 1010.5 1.4
03/10:30pm 25.6 25.3 20.4 73 3.4 E 22 30 12 16 1010.8 1010.5 1.4
03/10:00pm 25.5 25.9 21.0 76 3.0 E 20 24 11 13 1011.1 1010.8 1.4
03/09:30pm 25.5 25.7 20.5 74 3.3 E 20 28 11 15 1011.3 1011.0 1.4
03/09:00pm 25.6 25.2 20.2 72 3.5 E 22 26 12 14 1011.2 1010.9 1.4
03/08:30pm 25.7 24.9 20.0 71 3.7 E 24 28 13 15 1011.0 1010.7 1.4
03/08:00pm 25.6 24.9 19.5 69 3.9 E 22 28 12 15 1010.8 1010.5 1.4
03/07:30pm 25.6 25.6 20.2 72 3.5 ESE 20 26 11 14 1010.7 1010.4 1.4
03/07:00pm 25.6 25.8 20.6 74 3.3 ESE 20 24 11 13 1010.4 1010.1 1.4
03/06:30pm 25.7 25.6 20.0 71 3.7 ESE 20 24 11 13 1010.2 1009.9 1.4
03/06:00pm 25.5 25.3 20.5 74 3.3 ESE 22 28 12 15 1010.0 1009.7 1.4
03/05:30pm 25.8 25.7 20.8 74 3.3 ESE 22 26 12 14 1009.9 1009.6 1.4
03/05:00pm 26.0 26.1 21.2 75 3.2 ESE 22 26 12 14 1009.8 1009.5 1.4
03/04:30pm 26.2 26.4 21.4 75 3.2 ESE 22 28 12 15 1009.5 1009.2 1.4
03/04:00pm 26.3 28.1 22.6 80 2.5 SE 17 20 9 11 1009.5 1009.2 1.2
03/03:30pm 25.9 28.1 22.6 82 2.2 SE 15 19 8 10 1009.4 1009.1 1.2
03/03:00pm 26.0 28.3 22.1 79 2.6 SE 13 15 7 8 1009.5 1009.2 1.2
03/02:30pm 25.7 27.5 21.1 76 3.0 SSE 13 15 7 8 1009.7 1009.4 1.2
03/02:00pm 25.1 26.9 22.6 86 1.7 SSE 17 19 9 10 1009.9 1009.6 1.2
03/01:42pm 24.8 27.0 23.2 91 1.1 SE 17 22 9 12 1010.2 1009.9 1.2
03/01:30pm 24.7 26.8 23.1 91 1.1 SE 17 20 9 11 1010.3 1010.0 1.2
03/01:23pm 24.2 25.5 22.6 91 1.1 SE 20 28 11 15 1010.4 1010.1 1.2
03/01:00pm 25.3 26.6 22.6 85 1.8 SSE 20 30 11 16 1010.6 1010.3 1.2
03/12:53pm 25.1 26.2 22.0 83 2.1 SSE 19 26 10 14 1010.7 1010.4 1.2
03/12:37pm 24.5 25.9 22.9 91 1.1 SSE 20 30 11 16 1010.9 1010.6 1.2
03/12:30pm 24.9 26.2 22.4 86 1.7 SSE 19 30 10 16 1011.0 1010.7 0.8
03/12:00pm 27.1 29.1 23.6 81 2.4 S 19 28 10 15 1011.4 1011.1 0.2
03/11:30am 26.7 30.3 24.4 87 1.6 S 13 17 7 9 1011.7 1011.4 0.2
03/11:00am 25.0 27.7 22.1 84 1.9 S 11 17 6 9 1012.3 1012.0 0.2
03/10:45am 25.2 29.0 23.4 90 1.2 SE 9 13 5 7 1012.5 1012.2 0.2
03/10:30am 24.2 25.1 21.9 87 1.5 SE 20 32 11 17 1012.6 1012.3 0.2
03/10:29am 24.2 25.0 21.7 86 1.7 SE 20 32 11 17 1012.6 1012.3 0.2
03/10:00am 27.2 28.8 22.2 74 3.4 SE 17 20 9 11 1012.6 1012.3 0.0
03/09:30am 26.0 25.8 20.6 72 3.5 ESE 22 26 12 14 1012.4 1012.1 0.0
03/09:00am 26.3 25.8 21.5 75 3.2 ESE 26 32 14 17 1012.6 1012.3 0.8
03/08:30am 26.3 26.8 20.8 71 3.6 SE 19 22 10 12 1012.6 1012.3 0.8
03/08:00am 26.3 27.7 21.1 73 3.4 SE 15 19 8 10 1012.3 1012.0 0.8
03/07:30am 26.4 28.1 20.9 72 3.6 SE 13 17 7 9 1011.9 1011.6 0.8
03/07:00am 25.9 26.7 20.7 73 3.4 ESE 17 20 9 11 1011.7 1011.4 0.8
03/06:30am 25.3 25.4 20.3 74 3.3 ESE 20 26 11 14 1011.3 1011.0 0.8
03/06:00am 25.1 24.4 19.5 71 3.6 ESE 22 28 12 15 1010.9 1010.6 0.8
03/05:30am 25.4 24.3 19.5 70 3.8 E 24 28 13 15 1010.6 1010.3 0.8
03/05:00am 25.0 24.7 20.3 75 3.1 ESE 22 28 12 15 1010.5 1010.2 0.8
03/04:30am 25.1 24.5 20.4 75 3.1 SE 24 28 13 15 1010.4 1010.1 0.8
03/04:00am 25.3 24.1 20.1 73 3.4 ESE 26 30 14 16 1010.3 1010.0 0.8
03/03:30am 25.1 24.8 20.4 75 3.1 ESE 22 28 12 15 1010.3 1010.0 0.8
03/03:00am 25.0 24.1 19.8 73 3.4 ESE 24 28 13 15 1010.5 1010.2 0.8
03/02:30am 25.2 24.6 20.5 75 3.1 ESE 24 30 13 16 1010.6 1010.3 0.8
03/02:00am 25.1 24.1 20.4 75 3.1 SE 26 32 14 17 1010.8 1010.5 0.8
03/01:30am 25.1 24.9 21.2 79 2.6 SE 24 28 13 15 1011.0 1010.7 0.8
03/01:00am 25.2 25.4 21.3 79 2.6 SE 22 26 12 14 1011.3 1011.0 0.8
03/12:30am 25.2 24.9 21.1 78 2.7 SE 24 28 13 15 1011.7 1011.4 0.8
03/12:00am 25.2 25.1 21.5 80 2.5 SE 24 30 13 16 1012.1 1011.8 0.8
 
Date/Time
EST
Temp
°C
App
Temp
°C
Dew
Point
°C
Rel
Hum
%
Delta-T
°C
Wind Press
QNH
hPa
Press
MSL
hPa
Rain since
9am
mm
Dir  Spd
km/h
Gust
km/h
Spd
kts
Gust
kts
02/11:30pm 25.2 25.5 21.5 80 2.5 SE 22 28 12 15 1012.3 1012.0 0.8
02/11:00pm 25.4 24.8 21.3 78 2.7 ESE 26 30 14 16 1012.3 1012.0 0.8
02/10:30pm 25.4 24.4 21.3 78 2.7 SE 28 32 15 17 1012.6 1012.3 0.8
02/10:00pm 25.5 25.4 21.4 78 2.7 SE 24 28 13 15 1012.7 1012.4 0.8
02/09:30pm 25.4 25.3 21.5 79 2.6 SE 24 28 13 15 1012.8 1012.5 0.8
02/09:00pm 25.5 25.4 21.4 78 2.7 SE 24 26 13 14 1012.8 1012.5 0.8
02/08:30pm 25.4 25.3 21.5 79 2.6 SE 24 28 13 15 1012.6 1012.3 0.8
02/08:00pm 25.6 25.6 21.7 79 2.6 ESE 24 30 13 16 1012.5 1012.2 0.8
02/07:30pm 25.6 24.6 21.3 77 2.9 SE 28 33 15 18 1012.3 1012.0 0.8
02/07:00pm 25.6 25.0 21.3 77 2.9 SE 26 32 14 17 1012.1 1011.8 0.8
02/06:30pm 25.6 24.9 21.1 76 3.0 SE 26 30 14 16 1011.9 1011.6 0.8
02/06:00pm 25.8 25.4 21.7 78 2.7 SE 26 32 14 17 1011.8 1011.5 0.8
02/05:30pm 26.2 24.9 21.4 75 3.2 SE 30 33 16 18 1011.6 1011.3 0.8
02/05:00pm 26.2 25.8 21.6 76 3.1 SE 26 32 14 17 1011.5 1011.2 0.8
02/04:30pm 26.7 26.2 21.5 73 3.5 SE 26 32 14 17 1011.4 1011.1 0.8
02/04:00pm 27.0 25.8 21.5 72 3.7 SE 30 35 16 19 1011.1 1010.8 0.8
02/03:30pm 27.0 25.3 21.3 71 3.8 ESE 32 39 17 21 1011.1 1010.8 0.8
02/03:00pm 27.2 26.0 21.5 71 3.8 ESE 30 35 16 19 1011.2 1010.9 0.8
02/02:30pm 26.9 26.0 21.4 72 3.7 SE 28 35 15 19 1011.2 1010.9 0.8
02/02:00pm 27.4 25.6 21.2 69 4.1 SE 32 35 17 19 1011.6 1011.3 0.8

Other formats

Comma delimited format used in spreadsheet applications
http://www.bom.gov.au/fwo/IDQ60801/IDQ60801.94368.axf

JavaScript Object Notation format (JSON) in row-major order
http://www.bom.gov.au/fwo/IDQ60801/IDQ60801.94368.json

Data quality

Most of these data are generated automatically and are frequently updated. Quality checks on data are not normally performed. It is possible for incorrect values to appear. Refer to information at About Latest Weather Observations and please check the disclaimer before using these data.